KSAC/SAC METAR and TAF weather

Enter ICAO airport designator
Station Type Date Time Source
KSAC METAR 2021/01/17 19:53 UTC NOAA

KSAC 171953Z 00000KT 7SM CLR 18/09 A3013 RMK AO2 SLP202 T01780089


Station Type Date Time Source
KSAC Decoded METAR 2021/01/17 19:53 UTC NOAA

SACRAMENTO EXECUTIVE AIRPORT , CA, United States (KSAC) 38-30N 121-30W 11M
Jan 17, 2021 - 02:53 PM EST / 2021.01.17 1953 UTC
Wind: Calm:0
Visibility: 7 mile(s):0
Sky conditions: clear
Temperature: 64.0 F (17.8 C)
Dew Point: 48.0 F (8.9 C)
Relative Humidity: 55%
Pressure (altimeter): 30.13 in. Hg (1020 hPa)
ob: KSAC 171953Z 00000KT 7SM CLR 18/09 A3013 RMK AO2 SLP202 T01780089
cycle: 20

Station Type Date Time Source
KSAC TAF 2021/01/17 18:33 UTC NOAA

TAF KSAC 171730Z 1718/1818 32006KT P6SM FEW250
TEMPO 1718/1720 4SM BR
FM181200 34010KT P6SM SCT200

Example: see airport list